createdAt,value
2023-03-04T00:01:01.781Z,11.50
2023-03-04T00:03:23.628Z,16.93
2023-03-04T00:05:45.376Z,11.50
2023-03-04T00:08:07.249Z,17.93
2023-03-04T00:10:28.978Z,18.13
2023-03-04T00:12:50.623Z,12.27
2023-03-04T00:15:12.307Z,19.47
2023-03-04T00:17:33.924Z,14.93
2023-03-04T00:19:56.233Z,15.70
2023-03-04T00:22:17.901Z,14.50
2023-03-04T00:24:39.631Z,14.77
2023-03-04T00:27:01.402Z,16.50
2023-03-04T00:29:23.344Z,18.93
2023-03-04T00:31:45.030Z,14.20
2023-03-04T00:34:06.911Z,21.03
2023-03-04T00:36:28.569Z,20.90
2023-03-04T00:38:50.717Z,15.67
2023-03-04T00:41:12.392Z,17.73
2023-03-04T00:43:36.169Z,10.50
2023-03-04T00:45:58.354Z,14.27
2023-03-04T00:48:20.102Z,10.37
2023-03-04T00:50:44.263Z,13.37
2023-03-04T00:53:05.933Z,11.57
2023-03-04T00:55:27.752Z,12.80
2023-03-04T00:57:51.697Z,13.27
2023-03-04T01:00:14.413Z,12.32
2023-03-04T01:02:36.122Z,14.90
2023-03-04T01:04:57.746Z,14.70
2023-03-04T01:07:19.383Z,9.83
2023-03-04T01:09:41.097Z,11.20
2023-03-04T01:12:03.518Z,12.10
2023-03-04T01:14:25.625Z,13.03
2023-03-04T01:16:49.637Z,13.93
2023-03-04T01:19:11.717Z,13.75
2023-03-04T01:21:33.346Z,9.70
2023-03-04T01:23:54.989Z,15.37
2023-03-04T01:26:16.575Z,10.40
2023-03-04T01:28:38.302Z,13.73
2023-03-04T01:31:03.382Z,12.32
2023-03-04T01:33:25.200Z,10.30
2023-03-04T01:35:46.915Z,10.93
2023-03-04T01:38:08.566Z,12.50
2023-03-04T01:40:31.429Z,13.60
2023-03-04T01:42:53.259Z,14.60
2023-03-04T01:45:19.158Z,15.87
2023-03-04T01:47:41.030Z,10.57
2023-03-04T01:50:19.181Z,12.23
2023-03-04T01:52:42.988Z,13.87
2023-03-04T01:55:16.402Z,14.40
2023-03-04T01:57:39.547Z,9.80
2023-03-04T02:00:25.819Z,7.90
2023-03-04T02:02:53.773Z,11.83
2023-03-04T02:05:16.156Z,9.70
2023-03-04T02:07:38.224Z,6.93
2023-03-04T02:09:59.830Z,9.43
2023-03-04T02:12:21.460Z,15.73
2023-03-04T02:14:43.127Z,11.83
2023-03-04T02:17:12.356Z,13.10
2023-03-04T02:19:55.746Z,10.50
2023-03-04T02:22:17.488Z,11.87
2023-03-04T02:25:00.429Z,9.80
2023-03-04T02:27:22.300Z,11.90
2023-03-04T02:29:44.304Z,15.60
2023-03-04T02:32:06.559Z,14.83
2023-03-04T02:34:33.374Z,9.97
2023-03-04T02:36:56.314Z,12.57
2023-03-04T02:39:20.982Z,12.20
2023-03-04T02:41:44.626Z,9.40
2023-03-04T02:44:37.780Z,8.30
2023-03-04T02:46:59.778Z,13.40
2023-03-04T02:49:24.000Z,11.73
2023-03-04T02:51:45.959Z,13.25
2023-03-04T02:54:21.917Z,13.00
2023-03-04T02:56:53.147Z,9.27
2023-03-04T02:59:17.519Z,7.10
2023-03-04T03:01:39.491Z,10.10
2023-03-04T03:04:01.107Z,10.13
2023-03-04T03:06:22.830Z,15.37
2023-03-04T03:08:44.953Z,12.50
2023-03-04T03:11:08.846Z,13.20
2023-03-04T03:13:32.322Z,9.57
2023-03-04T03:15:54.064Z,6.57
2023-03-04T03:18:18.708Z,11.13
2023-03-04T03:20:40.435Z,10.67
2023-03-04T03:23:03.568Z,11.03
2023-03-04T03:25:25.269Z,13.77
2023-03-04T03:27:48.679Z,8.20
2023-03-04T03:30:14.799Z,12.87
2023-03-04T03:32:37.195Z,10.93
2023-03-04T03:34:58.962Z,8.27
2023-03-04T03:37:20.893Z,8.90
2023-03-04T03:39:43.568Z,14.10
2023-03-04T03:42:05.585Z,10.43
2023-03-04T03:44:27.344Z,12.90
2023-03-04T03:46:48.922Z,6.83
2023-03-04T03:49:10.548Z,9.97
2023-03-04T03:51:32.281Z,12.97
2023-03-04T03:53:53.856Z,10.43
2023-03-04T03:56:15.438Z,7.40
2023-03-04T03:58:37.074Z,9.53
2023-03-04T04:00:58.756Z,6.80
2023-03-04T04:03:21.293Z,13.53
2023-03-04T04:05:43.159Z,13.90
2023-03-04T04:08:05.181Z,8.10
2023-03-04T04:10:26.807Z,11.47
2023-03-04T04:12:48.528Z,13.53
2023-03-04T04:15:12.750Z,11.27
2023-03-04T04:17:34.321Z,10.32
2023-03-04T04:19:55.948Z,10.43
2023-03-04T04:22:21.332Z,8.40
2023-03-04T04:24:43.361Z,10.33
2023-03-04T04:27:05.047Z,6.93
2023-03-04T04:29:26.655Z,12.37
2023-03-04T04:31:48.231Z,9.93
2023-03-04T04:34:09.935Z,9.03
2023-03-04T04:36:31.582Z,10.70
2023-03-04T04:38:53.421Z,12.20
2023-03-04T04:41:23.389Z,11.47
2023-03-04T04:43:45.056Z,14.07
2023-03-04T04:46:06.662Z,17.83
2023-03-04T04:48:28.264Z,11.53
2023-03-04T04:50:56.258Z,14.20
2023-03-04T04:53:17.849Z,10.73
2023-03-04T04:55:39.439Z,14.50
2023-03-04T04:58:01.056Z,15.93
2023-03-04T05:00:22.824Z,9.87
2023-03-04T05:02:44.950Z,6.73
2023-03-04T05:05:07.894Z,9.63
2023-03-04T05:07:29.481Z,14.57
2023-03-04T05:09:51.060Z,10.07
2023-03-04T05:12:12.723Z,11.83
2023-03-04T05:14:34.319Z,12.77
2023-03-04T05:16:55.935Z,6.77
2023-03-04T05:19:17.615Z,8.63
2023-03-04T05:21:39.392Z,7.20
2023-03-04T05:24:01.181Z,10.37
2023-03-04T05:26:23.142Z,11.57
2023-03-04T05:28:45.324Z,8.67
2023-03-04T05:31:07.263Z,8.63
2023-03-04T05:33:29.808Z,6.30
2023-03-04T05:35:51.689Z,7.47
2023-03-04T05:38:16.489Z,7.70
2023-03-04T05:40:39.482Z,6.53
2023-03-04T05:43:01.140Z,10.83
2023-03-04T05:45:24.015Z,5.80
2023-03-04T05:47:45.571Z,9.07
2023-03-04T05:50:07.813Z,8.10
2023-03-04T05:52:29.484Z,7.67
2023-03-04T05:54:51.042Z,6.77
2023-03-04T05:57:12.586Z,11.03
2023-03-04T05:59:34.175Z,9.73
2023-03-04T06:01:55.870Z,8.97
2023-03-04T06:04:17.468Z,11.37
2023-03-04T06:06:39.137Z,11.30
2023-03-04T06:09:01.171Z,7.57
2023-03-04T06:11:22.814Z,10.50
2023-03-04T06:13:45.122Z,7.50
2023-03-04T06:16:07.322Z,4.90
2023-03-04T06:18:29.580Z,8.57
2023-03-04T06:20:51.489Z,7.73
2023-03-04T06:23:13.069Z,6.00
2023-03-04T06:25:34.665Z,10.77
2023-03-04T06:27:56.375Z,8.70
2023-03-04T06:30:19.172Z,11.07
2023-03-04T06:32:44.172Z,7.80
2023-03-04T06:35:06.737Z,7.87
2023-03-04T06:37:28.320Z,14.80
2023-03-04T06:39:50.442Z,12.80
2023-03-04T06:42:12.815Z,6.27
2023-03-04T06:44:34.395Z,8.40
2023-03-04T06:46:56.717Z,11.90
2023-03-04T06:49:18.360Z,12.80
2023-03-04T06:51:40.038Z,11.67
2023-03-04T06:54:01.929Z,13.23
2023-03-04T06:56:23.527Z,9.60
2023-03-04T06:58:45.453Z,9.57
2023-03-04T07:01:25.997Z,11.07
2023-03-04T07:03:50.349Z,8.53
2023-03-04T07:08:35.896Z,9.63
2023-03-04T07:10:57.558Z,13.77
2023-03-04T07:13:19.205Z,8.10
2023-03-04T07:15:40.829Z,8.33
2023-03-04T07:18:02.428Z,7.40
2023-03-04T07:20:24.205Z,11.23
2023-03-04T07:22:45.798Z,12.00
2023-03-04T07:25:08.122Z,7.93
2023-03-04T07:27:29.770Z,6.50
2023-03-04T07:29:51.345Z,11.20
2023-03-04T07:32:12.996Z,5.83
2023-03-04T07:34:34.850Z,7.13
2023-03-04T07:36:56.441Z,6.40
2023-03-04T07:39:18.207Z,8.87
2023-03-04T07:41:41.150Z,8.70
2023-03-04T07:44:05.226Z,8.00
2023-03-04T07:46:26.963Z,13.05
2023-03-04T07:48:48.696Z,8.93
2023-03-04T07:51:17.602Z,8.97
2023-03-04T07:53:42.151Z,10.63
2023-03-04T07:58:27.009Z,8.10
2023-03-04T08:00:48.665Z,8.43
2023-03-04T08:03:10.270Z,6.07
2023-03-04T08:05:31.837Z,12.43
2023-03-04T08:07:53.589Z,7.57
2023-03-04T08:10:15.409Z,8.23
2023-03-04T08:12:37.136Z,6.57
2023-03-04T08:15:00.521Z,4.87
2023-03-04T08:17:22.194Z,8.23
2023-03-04T08:19:44.205Z,11.23
2023-03-04T08:22:05.764Z,9.67
2023-03-04T08:24:27.883Z,6.93
2023-03-04T08:26:51.015Z,8.93
2023-03-04T08:29:20.547Z,6.07
2023-03-04T08:31:42.930Z,4.67
2023-03-04T08:34:05.738Z,6.30
2023-03-04T08:36:27.397Z,7.53
2023-03-04T08:38:49.219Z,10.17
2023-03-04T08:41:11.193Z,10.00
2023-03-04T08:43:34.736Z,8.10
2023-03-04T08:45:56.853Z,9.40
2023-03-04T08:48:19.036Z,6.67
2023-03-04T08:50:40.863Z,15.33
2023-03-04T08:53:02.556Z,5.70
2023-03-04T08:55:24.114Z,5.67
2023-03-04T08:57:46.101Z,7.53
2023-03-04T09:00:08.855Z,5.33
2023-03-04T09:02:30.510Z,4.37
2023-03-04T09:04:52.132Z,8.13
2023-03-04T09:07:14.279Z,7.53
2023-03-04T09:09:35.966Z,8.77
2023-03-04T09:11:57.836Z,7.90
2023-03-04T09:14:19.519Z,8.13
2023-03-04T09:16:41.135Z,7.60
2023-03-04T09:19:02.813Z,6.07
2023-03-04T09:21:24.498Z,6.70
2023-03-04T09:23:46.312Z,6.00
2023-03-04T09:26:21.477Z,4.67
2023-03-04T09:28:43.103Z,4.83
2023-03-04T09:31:12.819Z,4.10
2023-03-04T09:33:34.432Z,7.73
2023-03-04T09:35:58.949Z,4.93
2023-03-04T09:38:20.747Z,4.53
2023-03-04T09:40:49.812Z,6.03
2023-03-04T09:43:27.522Z,4.13
2023-03-04T09:46:02.999Z,5.33
2023-03-04T09:48:30.484Z,5.03
2023-03-04T09:51:04.432Z,6.27
2023-03-04T09:53:49.428Z,3.38
2023-03-04T09:56:13.067Z,2.45
2023-03-04T09:59:14.944Z,7.05
2023-03-04T10:01:46.541Z,5.50
2023-03-04T10:04:46.599Z,3.00
2023-03-04T10:07:27.144Z,4.93
2023-03-04T10:10:02.427Z,5.77
2023-03-04T10:12:30.406Z,4.30
2023-03-04T10:15:07.164Z,4.57
2023-03-04T10:17:40.684Z,4.40
2023-03-04T10:20:32.847Z,4.93
2023-03-04T10:23:02.759Z,5.03
2023-03-04T10:25:31.621Z,4.27
2023-03-04T10:27:59.730Z,1.83
2023-03-04T10:31:03.396Z,2.40
2023-03-04T10:33:35.755Z,4.43
2023-03-04T10:36:06.676Z,4.73
2023-03-04T10:38:39.682Z,3.23
2023-03-04T10:41:14.649Z,6.80
2023-03-04T10:45:59.089Z,2.53
2023-03-04T10:48:26.811Z,2.57
2023-03-04T10:50:48.589Z,5.50
2023-03-04T10:53:29.757Z,3.53
2023-03-04T10:55:51.454Z,6.70
2023-03-04T10:58:20.519Z,6.10
2023-03-04T11:00:42.338Z,5.17
2023-03-04T11:03:32.932Z,7.07
2023-03-04T11:06:32.599Z,5.63
2023-03-04T11:08:57.966Z,2.77
2023-03-04T11:11:44.781Z,2.00
2023-03-04T11:14:44.768Z,2.60
2023-03-04T11:17:20.351Z,2.43
2023-03-04T11:19:47.826Z,4.47
2023-03-04T11:22:15.831Z,2.43
2023-03-04T11:24:38.073Z,3.67
2023-03-04T11:27:08.372Z,3.03
2023-03-04T11:29:38.109Z,6.03
2023-03-04T11:32:24.276Z,3.47
2023-03-04T11:34:57.936Z,3.33
2023-03-04T11:37:42.850Z,3.87
2023-03-04T11:40:09.884Z,3.33
2023-03-04T11:43:04.487Z,1.77
2023-03-04T11:45:59.429Z,2.60
2023-03-04T11:48:57.417Z,3.20
2023-03-04T11:51:57.708Z,1.73
2023-03-04T11:54:53.341Z,2.60
2023-03-04T12:00:07.863Z,2.83
2023-03-04T12:03:24.445Z,2.63
2023-03-04T12:06:17.129Z,2.93
2023-03-04T12:09:00.536Z,2.77
2023-03-04T12:11:49.903Z,2.27
2023-03-04T12:14:22.595Z,1.40
2023-03-04T12:17:25.437Z,2.10
2023-03-04T12:20:19.707Z,3.67
2023-03-04T12:23:26.615Z,1.83
2023-03-04T12:25:51.913Z,2.90
2023-03-04T12:28:54.501Z,3.00
2023-03-04T12:31:36.812Z,2.77
2023-03-04T12:34:23.318Z,1.90
2023-03-04T12:37:15.818Z,4.83
2023-03-04T12:39:49.600Z,2.90
2023-03-04T12:42:51.506Z,3.30
2023-03-04T12:46:02.767Z,2.50
2023-03-04T12:48:37.572Z,1.67
2023-03-04T12:51:22.250Z,3.83
2023-03-04T12:54:03.757Z,2.25
2023-03-04T12:56:50.470Z,1.80
2023-03-04T12:59:20.436Z,2.83
2023-03-04T13:02:03.572Z,3.73
2023-03-04T13:05:19.745Z,1.57
2023-03-04T13:08:19.444Z,2.33
2023-03-04T13:10:41.543Z,3.03
2023-03-04T13:13:04.322Z,3.80
2023-03-04T13:15:25.850Z,4.73
2023-03-04T13:17:56.532Z,5.63
2023-03-04T13:20:30.284Z,7.23
2023-03-04T13:22:58.364Z,1.40
2023-03-04T13:25:36.550Z,2.40
2023-03-04T13:28:13.778Z,1.03
2023-03-04T13:30:35.465Z,1.80
2023-03-04T13:33:09.751Z,0.83
2023-03-04T13:35:46.926Z,0.50
2023-03-04T13:38:34.880Z,1.67
2023-03-04T13:41:15.358Z,1.37
2023-03-04T13:43:59.768Z,2.10
2023-03-04T13:46:23.574Z,3.03
2023-03-04T13:48:51.524Z,1.60
2023-03-04T13:51:34.491Z,3.07
2023-03-04T13:53:59.089Z,4.20
2023-03-04T13:56:37.910Z,3.67
2023-03-04T13:59:08.839Z,6.33
2023-03-04T14:01:56.743Z,3.43
2023-03-04T14:04:28.324Z,3.67
2023-03-04T14:06:53.117Z,3.67
2023-03-04T14:09:21.482Z,3.43
2023-03-04T14:11:44.470Z,6.67
2023-03-04T14:14:12.163Z,5.80
2023-03-04T14:16:50.365Z,5.63
2023-03-04T14:19:43.177Z,10.47
2023-03-04T14:22:22.209Z,8.13
2023-03-04T14:25:14.085Z,7.53
2023-03-04T14:27:37.067Z,4.30
2023-03-04T14:30:41.552Z,2.37
2023-03-04T14:33:10.571Z,3.45
2023-03-04T14:35:33.071Z,6.50
2023-03-04T14:38:03.387Z,5.57
2023-03-04T14:40:33.601Z,5.23
2023-03-04T14:43:11.094Z,5.37
2023-03-04T14:45:32.811Z,7.60
2023-03-04T14:48:04.644Z,5.67
2023-03-04T14:50:26.337Z,7.73
2023-03-04T14:52:53.178Z,6.97
2023-03-04T14:55:17.772Z,5.97
2023-03-04T15:00:26.032Z,6.30
2023-03-04T15:02:58.922Z,6.90
2023-03-04T15:05:32.696Z,4.73
2023-03-04T15:08:21.818Z,4.47
2023-03-04T15:11:00.182Z,7.53
2023-03-04T15:13:43.638Z,6.73
2023-03-04T15:16:05.666Z,6.90
2023-03-04T15:18:30.153Z,3.80
2023-03-04T15:23:25.788Z,3.17
2023-03-04T15:25:54.010Z,2.93
2023-03-04T15:28:19.098Z,1.97
2023-03-04T15:30:40.867Z,4.23
2023-03-04T15:33:02.544Z,3.67
2023-03-04T15:35:29.580Z,7.23
2023-03-04T15:37:54.592Z,9.70
2023-03-04T15:40:34.078Z,3.23
2023-03-04T15:42:58.477Z,3.17
2023-03-04T15:47:47.898Z,5.30
2023-03-04T15:50:10.888Z,7.57
2023-03-04T15:52:33.675Z,4.67
2023-03-04T15:54:56.501Z,6.10
2023-03-04T15:57:27.697Z,3.60
2023-03-04T15:59:50.202Z,6.77
2023-03-04T16:02:23.739Z,4.53
2023-03-04T16:04:45.407Z,5.23
2023-03-04T16:07:07.081Z,4.63
2023-03-04T16:09:29.853Z,3.87
2023-03-04T16:11:53.175Z,2.43
2023-03-04T16:14:16.324Z,5.47
2023-03-04T16:16:38.128Z,6.83
2023-03-04T16:18:59.851Z,2.70
2023-03-04T16:21:23.403Z,5.43
2023-03-04T16:23:49.691Z,3.72
2023-03-04T16:26:14.787Z,4.10
2023-03-04T16:28:36.640Z,4.40
2023-03-04T16:30:58.288Z,3.30
2023-03-04T16:33:19.905Z,3.53
2023-03-04T16:35:43.992Z,4.60
2023-03-04T16:38:18.539Z,7.32
2023-03-04T16:40:40.259Z,6.22
2023-03-04T16:43:01.916Z,3.00
2023-03-04T16:45:30.312Z,4.83
2023-03-04T16:47:54.277Z,3.70
2023-03-04T16:50:20.021Z,5.50
2023-03-04T16:52:46.019Z,2.63
2023-03-04T16:55:19.811Z,3.83
2023-03-04T16:57:41.514Z,4.60
2023-03-04T17:00:06.568Z,5.43
2023-03-04T17:02:29.742Z,5.67
2023-03-04T17:04:52.336Z,4.33
2023-03-04T17:07:14.582Z,8.67
2023-03-04T17:09:37.669Z,5.90
2023-03-04T17:12:00.130Z,6.07
2023-03-04T17:14:22.844Z,8.40
2023-03-04T17:16:44.485Z,4.43
2023-03-04T17:19:06.176Z,4.37
2023-03-04T17:21:27.887Z,4.93
2023-03-04T17:23:50.919Z,2.67
2023-03-04T17:26:13.504Z,3.50
2023-03-04T17:28:35.780Z,2.70
2023-03-04T17:30:57.497Z,3.10
2023-03-04T17:33:19.984Z,3.47
2023-03-04T17:35:41.789Z,3.97
2023-03-04T17:38:03.492Z,4.17
2023-03-04T17:40:25.162Z,4.63
2023-03-04T17:42:47.124Z,4.27
2023-03-04T17:45:10.922Z,2.93
2023-03-04T17:47:33.355Z,3.40
2023-03-04T17:49:56.341Z,5.32
2023-03-04T17:52:19.114Z,3.57
2023-03-04T17:54:41.053Z,4.63
2023-03-04T17:57:02.862Z,3.83
2023-03-04T17:59:24.895Z,5.27
2023-03-04T18:01:46.896Z,7.07
2023-03-04T18:04:08.682Z,2.57
2023-03-04T18:06:30.573Z,3.93
2023-03-04T18:08:53.302Z,7.77
2023-03-04T18:11:15.988Z,4.03
2023-03-04T18:13:39.997Z,4.93
2023-03-04T18:16:05.821Z,4.57
2023-03-04T18:18:27.500Z,4.30
2023-03-04T18:20:49.152Z,6.27
2023-03-04T18:23:10.887Z,5.53
2023-03-04T18:25:34.104Z,4.63
2023-03-04T18:27:55.728Z,3.60
2023-03-04T18:30:22.926Z,3.43
2023-03-04T18:32:51.698Z,10.50
2023-03-04T18:35:14.815Z,5.63
2023-03-04T18:37:36.990Z,8.60
2023-03-04T18:39:58.686Z,6.17
2023-03-04T18:42:20.399Z,3.43
2023-03-04T18:44:42.117Z,6.23
2023-03-04T18:47:03.901Z,7.53
2023-03-04T18:49:25.756Z,6.10
2023-03-04T18:51:47.407Z,7.47
2023-03-04T18:54:09.220Z,6.10
2023-03-04T18:56:56.352Z,10.80
2023-03-04T18:59:31.139Z,8.93
2023-03-04T19:04:20.074Z,7.77
2023-03-04T19:06:41.779Z,7.63
2023-03-04T19:09:05.869Z,8.67
2023-03-04T19:11:29.856Z,12.82
2023-03-04T19:13:51.957Z,9.95
2023-03-04T19:16:13.746Z,12.47
2023-03-04T19:18:35.393Z,14.57
2023-03-04T19:21:00.691Z,11.33
2023-03-04T19:23:22.434Z,13.87
2023-03-04T19:25:44.941Z,8.63
2023-03-04T19:28:07.444Z,13.17
2023-03-04T19:30:29.467Z,11.50
2023-03-04T19:32:51.412Z,14.97
2023-03-04T19:35:12.985Z,14.80
2023-03-04T19:37:34.654Z,17.07
2023-03-04T19:39:56.352Z,11.30
2023-03-04T19:42:18.582Z,10.63
2023-03-04T19:44:42.119Z,9.37
2023-03-04T19:47:05.481Z,13.70
2023-03-04T19:49:27.344Z,14.73
2023-03-04T19:51:49.081Z,14.77
2023-03-04T19:54:11.892Z,14.67
2023-03-04T19:56:33.602Z,11.33
2023-03-04T19:58:56.625Z,15.03
2023-03-04T20:01:28.452Z,9.10
2023-03-04T20:03:50.286Z,17.27
2023-03-04T20:06:11.949Z,14.83
2023-03-04T20:08:37.853Z,14.17
2023-03-04T20:11:00.396Z,22.63
2023-03-04T20:13:22.140Z,13.87
2023-03-04T20:15:44.319Z,15.13
2023-03-04T20:18:06.227Z,8.97
2023-03-04T20:20:29.288Z,14.83
2023-03-04T20:22:50.905Z,10.87
2023-03-04T20:25:13.502Z,11.33
2023-03-04T20:27:35.154Z,13.37
2023-03-04T20:29:56.766Z,8.37
2023-03-04T20:32:18.505Z,10.70
2023-03-04T20:34:40.211Z,14.50
2023-03-04T20:37:01.832Z,18.37
2023-03-04T20:39:29.206Z,21.07
2023-03-04T20:41:51.311Z,12.87
2023-03-04T20:44:12.902Z,25.37
2023-03-04T20:46:46.040Z,13.83
2023-03-04T20:49:23.374Z,26.83
2023-03-04T20:51:45.208Z,13.57
2023-03-04T20:54:07.916Z,14.30
2023-03-04T20:56:29.933Z,7.73
2023-03-04T20:58:55.229Z,15.27
2023-03-04T21:03:38.597Z,11.23
2023-03-04T21:06:05.616Z,10.67
2023-03-04T21:08:27.348Z,14.37
2023-03-04T21:10:49.814Z,12.07
2023-03-04T21:13:16.518Z,10.43
2023-03-04T21:15:38.331Z,16.87
2023-03-04T21:17:59.933Z,13.73
2023-03-04T21:20:21.691Z,15.63
2023-03-04T21:22:43.331Z,9.40
2023-03-04T21:25:05.618Z,9.33
2023-03-04T21:27:27.334Z,11.17
2023-03-04T21:29:49.537Z,13.00
2023-03-04T21:32:24.210Z,15.70
2023-03-04T21:34:51.980Z,12.43
2023-03-04T21:37:14.386Z,10.37
2023-03-04T21:39:36.330Z,10.23
2023-03-04T21:41:59.976Z,11.30
2023-03-04T21:44:28.572Z,10.27
2023-03-04T21:46:57.482Z,8.83
2023-03-04T21:49:19.118Z,9.80
2023-03-04T21:51:43.464Z,13.03
2023-03-04T21:54:07.598Z,10.50
2023-03-04T21:56:29.204Z,11.38
2023-03-04T21:58:50.752Z,9.67
2023-03-04T22:01:15.225Z,13.27
2023-03-04T22:05:59.324Z,9.17
2023-03-04T22:08:21.886Z,12.83
2023-03-04T22:10:45.175Z,11.10
2023-03-04T22:13:09.430Z,9.73
2023-03-04T22:15:31.029Z,12.88
2023-03-04T22:17:52.720Z,11.17
2023-03-04T22:20:14.800Z,8.60
2023-03-04T22:22:36.402Z,10.67
2023-03-04T22:25:00.126Z,11.13
2023-03-04T22:27:21.933Z,12.05
2023-03-04T22:29:43.611Z,9.27
2023-03-04T22:32:05.769Z,7.70
2023-03-04T22:34:27.549Z,7.93
2023-03-04T22:36:49.371Z,15.10
2023-03-04T22:39:15.033Z,15.13
2023-03-04T22:41:38.312Z,10.17
2023-03-04T22:44:00.730Z,9.13
2023-03-04T22:46:27.806Z,11.40
2023-03-04T22:48:51.346Z,9.50
2023-03-04T22:51:13.359Z,10.65
2023-03-04T22:53:35.660Z,10.13
2023-03-04T22:55:58.748Z,13.93
2023-03-04T22:58:20.365Z,12.70
2023-03-04T23:00:42.016Z,9.57
2023-03-04T23:03:06.311Z,8.47
2023-03-04T23:05:28.310Z,8.80
2023-03-04T23:07:51.872Z,6.90
2023-03-04T23:10:24.027Z,8.70
2023-03-04T23:12:45.863Z,13.27
2023-03-04T23:15:09.295Z,13.13
2023-03-04T23:17:30.996Z,10.23
2023-03-04T23:19:53.279Z,10.20
2023-03-04T23:22:14.889Z,6.97
2023-03-04T23:24:36.883Z,11.20
2023-03-04T23:26:58.551Z,5.30
2023-03-04T23:29:20.213Z,8.37
2023-03-04T23:31:44.245Z,7.27
2023-03-04T23:34:07.020Z,10.38
2023-03-04T23:36:32.889Z,9.50
2023-03-04T23:38:58.669Z,10.47
2023-03-04T23:41:25.212Z,6.70
2023-03-04T23:43:48.531Z,10.10
2023-03-04T23:46:13.551Z,7.87
2023-03-04T23:48:35.367Z,8.83
2023-03-04T23:50:59.230Z,7.73
2023-03-04T23:53:21.120Z,13.38
2023-03-04T23:55:42.716Z,25.10
2023-03-04T23:58:04.280Z,10.10
